createdAt,value
2023-03-28T00:00:22.113Z,1.08
2023-03-28T00:05:20.345Z,0.90
2023-03-28T00:10:17.009Z,0.88
2023-03-28T00:15:15.657Z,0.70
2023-03-28T00:20:14.152Z,1.00
2023-03-28T00:25:11.502Z,0.90
2023-03-28T00:30:09.431Z,1.08
2023-03-28T00:35:06.160Z,1.10
2023-03-28T00:40:02.739Z,1.02
2023-03-28T00:44:59.191Z,1.00
2023-03-28T00:50:05.511Z,1.02
2023-03-28T00:55:04.488Z,1.52
2023-03-28T01:00:00.934Z,1.67
2023-03-28T01:05:01.638Z,0.85
2023-03-28T01:09:59.426Z,1.10
2023-03-28T01:14:56.384Z,0.73
2023-03-28T01:20:39.911Z,0.70
2023-03-28T01:25:41.965Z,3.20
2023-03-28T01:30:44.303Z,1.10
2023-03-28T01:35:59.533Z,1.25
2023-03-28T01:41:37.894Z,0.60
2023-03-28T01:46:39.491Z,0.70
2023-03-28T01:51:54.129Z,0.80
2023-03-28T01:57:10.982Z,0.60
2023-03-28T02:02:09.767Z,0.70
2023-03-28T02:07:08.920Z,1.35
2023-03-28T02:12:33.736Z,0.68
2023-03-28T02:17:31.091Z,0.63
2023-03-28T02:22:34.493Z,0.90
2023-03-28T02:27:31.727Z,0.70
2023-03-28T02:32:28.355Z,0.80
2023-03-28T02:37:35.370Z,0.70
2023-03-28T02:42:33.666Z,0.90
2023-03-28T02:48:02.429Z,1.20
2023-03-28T02:53:22.180Z,0.90
2023-03-28T02:58:25.025Z,1.20
2023-03-28T03:03:23.311Z,1.15
2023-03-28T03:08:20.295Z,0.75
2023-03-28T03:13:16.814Z,0.90
2023-03-28T03:18:13.610Z,0.65
2023-03-28T03:23:10.289Z,0.80
2023-03-28T03:28:06.724Z,0.65
2023-03-28T03:33:10.287Z,1.00
2023-03-28T03:38:06.977Z,1.00
2023-03-28T03:43:03.508Z,0.82
2023-03-28T03:48:00.209Z,1.08
2023-03-28T03:52:57.976Z,1.80
2023-03-28T03:57:59.215Z,0.93
2023-03-28T04:02:55.857Z,0.93
2023-03-28T04:24:55.678Z,1.37
2023-03-28T04:29:55.810Z,0.80
2023-03-28T04:35:47.921Z,0.93
2023-03-28T04:45:56.540Z,1.40
2023-03-28T15:08:37.826Z,2.67
2023-03-28T16:02:56.054Z,1.50
2023-03-28T16:07:54.242Z,1.60
2023-03-28T16:12:51.520Z,1.80
2023-03-28T16:17:49.144Z,1.70
2023-03-28T16:22:46.221Z,1.27
2023-03-28T16:27:42.953Z,2.00
2023-03-28T16:32:39.414Z,1.73
2023-03-28T16:37:35.994Z,1.90
2023-03-28T16:42:32.434Z,1.35
2023-03-28T16:47:29.584Z,1.67
2023-03-28T16:52:27.883Z,1.80
2023-03-28T16:57:27.371Z,1.95
2023-03-28T17:02:24.034Z,1.90
2023-03-28T17:07:21.049Z,1.90
2023-03-28T17:17:15.548Z,1.98
2023-03-28T17:22:13.179Z,2.35
2023-03-28T17:27:09.682Z,2.13
2023-03-28T17:32:07.005Z,1.40
2023-03-28T17:37:04.116Z,2.03
2023-03-28T17:42:00.712Z,2.28
2023-03-28T17:46:57.512Z,1.85
2023-03-28T17:57:03.303Z,2.35
2023-03-28T18:01:59.785Z,1.55
2023-03-28T18:06:56.900Z,1.63
2023-03-28T18:11:53.533Z,1.90
2023-03-28T18:16:50.040Z,1.60
2023-03-28T19:01:20.725Z,1.80
2023-03-28T19:07:41.079Z,1.80
2023-03-28T19:43:29.025Z,1.88
2023-03-28T19:48:25.922Z,2.40
2023-03-28T19:58:18.785Z,1.80
2023-03-28T20:03:15.851Z,2.42
2023-03-28T20:08:13.336Z,2.30
2023-03-28T20:13:10.040Z,1.95
2023-03-28T20:18:07.324Z,2.10
2023-03-28T20:23:04.124Z,2.60
2023-03-28T20:28:02.335Z,2.05
2023-03-28T20:32:58.894Z,2.42
2023-03-28T20:37:56.860Z,2.17
2023-03-28T20:42:54.565Z,2.38
2023-03-28T20:47:58.997Z,2.15
2023-03-28T20:52:55.628Z,1.88
2023-03-28T20:57:52.080Z,1.88
2023-03-28T21:02:53.880Z,1.90
2023-03-28T21:07:51.319Z,2.30
2023-03-28T21:12:49.143Z,1.75
2023-03-28T21:17:49.041Z,2.20
2023-03-28T21:22:45.606Z,2.33
2023-03-28T21:27:42.204Z,2.20
2023-03-28T21:32:38.880Z,1.98
2023-03-28T21:37:35.884Z,2.17
2023-03-28T21:42:34.795Z,2.13
2023-03-28T21:47:31.514Z,2.85
2023-03-28T21:52:28.182Z,1.85
2023-03-28T21:57:24.738Z,3.25
2023-03-28T22:02:21.495Z,2.67
2023-03-28T22:07:18.033Z,1.90
2023-03-28T22:12:17.216Z,1.90
2023-03-28T22:17:13.899Z,1.85
2023-03-28T22:22:11.177Z,2.10
2023-03-28T22:27:09.584Z,1.83
2023-03-28T22:32:06.364Z,1.83
2023-03-28T22:37:03.101Z,2.20
2023-03-28T22:41:59.544Z,1.88
2023-03-28T22:47:02.101Z,2.05
2023-03-28T22:52:03.204Z,2.10
2023-03-28T22:57:00.586Z,2.80
2023-03-28T23:01:57.565Z,2.80
2023-03-28T23:11:51.775Z,2.35
2023-03-28T23:16:48.360Z,2.58
2023-03-28T23:21:44.892Z,2.55
2023-03-28T23:26:41.541Z,2.85
2023-03-28T23:31:38.163Z,2.70
2023-03-28T23:36:34.661Z,2.47
2023-03-28T23:41:31.116Z,2.78
2023-03-28T23:46:27.603Z,2.38
2023-03-28T23:51:28.978Z,3.15
2023-03-28T23:56:25.836Z,2.47
